Time,TemperatureF,DewpointF,PressureIn,WindDirection,WindDirectionDegrees,WindSpeedMPH,WindSpeedGustMPH,Humidity,HourlyPrecipIn,Conditions,Clouds,dailyrainin,SoftwareType,DateUTC
2013-01-25 00:00:00,12.4,4.8,30.49,SSE,152,0.0,0.0,71,0.00,,OVC130,0.00,VWS V14.00,2013-01-25 05:00:00,
2013-01-25 00:01:00,12.4,4.8,30.49,SSE,152,0.0,2.0,71,0.00,,OVC130,0.00,VWS V14.00,2013-01-25 05:01:00,
2013-01-25 00:02:00,12.4,4.8,30.49,SSE,153,0.0,2.0,71,0.00,,OVC130,0.00,VWS V14.00,2013-01-25 05:02:00,
2013-01-25 00:03:00,12.4,4.8,30.48,SSE,153,2.0,2.0,71,0.00,,OVC130,0.00,VWS V14.00,2013-01-25 05:03:00,
2013-01-25 00:08:00,12.4,4.8,30.48,SSE,148,4.0,4.0,71,0.00,,OVC130,0.00,VWS V14.00,2013-01-25 05:08:00,
2013-01-25 00:13:00,12.4,4.8,30.48,SSE,148,0.0,4.0,71,0.00,,OVC130,0.00,VWS V14.00,2013-01-25 05:13:00,
2013-01-25 00:18:00,12.4,4.8,30.48,South,178,2.0,4.0,71,0.00,,OVC130,0.00,VWS V14.00,2013-01-25 05:18:00,
2013-01-25 00:23:00,12.4,4.8,30.48,South,173,0.0,5.0,71,0.00,,OVC130,0.00,VWS V14.00,2013-01-25 05:23:00,
2013-01-25 00:28:00,12.4,4.8,30.48,South,173,0.0,5.0,71,0.00,,OVC130,0.00,VWS V14.00,2013-01-25 05:28:00,
2013-01-25 00:33:00,12.4,4.8,30.47,South,173,0.0,3.0,71,0.00,,OVC130,0.00,VWS V14.00,2013-01-25 05:33:00,
2013-01-25 00:39:00,12.4,4.8,30.48,South,191,4.0,4.0,71,0.00,,OVC130,0.00,VWS V14.00,2013-01-25 05:39:00,
2013-01-25 00:44:00,12.4,4.5,30.48,South,190,2.0,4.0,70,0.00,,OVC130,0.00,VWS V14.00,2013-01-25 05:44:00,
2013-01-25 00:49:00,12.5,4.6,30.48,South,190,0.0,4.0,70,0.00,,OVC130,0.00,VWS V14.00,2013-01-25 05:49:00,
2013-01-25 00:54:00,12.5,4.6,30.48,South,190,2.0,4.0,70,0.00,,OVC130,0.00,VWS V14.00,2013-01-25 05:54:00,
2013-01-25 00:59:00,12.5,4.6,30.48,South,190,0.0,4.0,70,0.00,,OVC130,0.00,VWS V14.00,2013-01-25 05:59:00,
2013-01-25 01:04:00,12.5,4.6,30.48,South,190,1.0,2.0,70,0.00,,OVC110,0.00,VWS V14.00,2013-01-25 06:04:00,
2013-01-25 01:09:00,12.5,4.9,30.48,South,190,0.0,3.0,71,0.00,,OVC110,0.00,VWS V14.00,2013-01-25 06:09:00,
2013-01-25 01:14:00,12.5,4.6,30.48,South,188,2.0,3.0,70,0.00,,OVC110,0.00,VWS V14.00,2013-01-25 06:14:00,
2013-01-25 01:19:00,12.5,4.6,30.48,South,187,3.0,5.0,70,0.00,,OVC110,0.00,VWS V14.00,2013-01-25 06:19:00,
2013-01-25 01:24:00,12.5,4.6,30.47,SSE,167,2.0,5.0,70,0.00,,OVC110,0.00,VWS V14.00,2013-01-25 06:24:00,
2013-01-25 01:29:00,12.5,4.6,30.46,SSE,167,1.0,5.0,70,0.00,,OVC110,0.00,VWS V14.00,2013-01-25 06:29:00,
2013-01-25 01:34:00,12.5,4.6,30.46,SSE,168,0.0,4.0,70,0.00,,OVC110,0.00,VWS V14.00,2013-01-25 06:34:00,
2013-01-25 01:39:00,12.5,4.9,30.45,SSE,167,2.0,4.0,71,0.00,,OVC110,0.00,VWS V14.00,2013-01-25 06:39:00,
2013-01-25 01:44:00,12.5,4.9,30.45,SSE,167,0.0,4.0,71,0.00,,OVC110,0.00,VWS V14.00,2013-01-25 06:44:00,
2013-01-25 01:49:00,12.5,4.9,30.45,SSE,167,0.0,4.0,71,0.00,,OVC110,0.00,VWS V14.00,2013-01-25 06:49:00,
2013-01-25 01:54:00,12.5,4.6,30.44,SSE,167,2.0,4.0,70,0.00,,OVC110,0.00,VWS V14.00,2013-01-25 06:54:00,
2013-01-25 01:59:00,12.5,4.9,30.43,SSE,167,0.0,4.0,71,0.00,,OVC110,0.00,VWS V14.00,2013-01-25 06:59:00,
2013-01-25 02:05:00,12.5,4.9,30.43,SSE,163,0.0,3.0,71,0.00,,OVC090,0.00,VWS V14.00,2013-01-25 07:05:00,
2013-01-25 02:10:00,12.5,4.9,30.43,SSE,163,1.0,4.0,71,0.00,,OVC090,0.00,VWS V14.00,2013-01-25 07:10:00,
2013-01-25 02:15:00,12.5,4.9,30.42,ESE,108,4.0,7.0,71,0.00,,OVC090,0.00,VWS V14.00,2013-01-25 07:15:00,
2013-01-25 02:20:00,12.6,5.0,30.42,SSE,168,0.0,7.0,71,0.00,,OVC090,0.00,VWS V14.00,2013-01-25 07:20:00,
2013-01-25 02:25:00,12.6,5.0,30.42,SSE,168,1.0,7.0,71,0.00,,OVC090,0.00,VWS V14.00,2013-01-25 07:25:00,
2013-01-25 02:30:00,12.6,5.0,30.42,SSE,166,2.0,7.0,71,0.00,,OVC090,0.00,VWS V14.00,2013-01-25 07:30:00,
2013-01-25 02:35:00,12.6,5.0,30.42,SSE,167,0.0,4.0,71,0.00,,OVC090,0.00,VWS V14.00,2013-01-25 07:35:00,
2013-01-25 02:40:00,12.6,5.0,30.41,SSE,167,1.0,4.0,71,0.00,,OVC090,0.00,VWS V14.00,2013-01-25 07:40:00,
2013-01-25 02:45:00,12.6,5.0,30.41,SSE,168,1.0,4.0,71,0.00,,OVC090,0.00,VWS V14.00,2013-01-25 07:45:00,
2013-01-25 02:50:00,12.6,5.0,30.41,South,188,1.0,5.0,71,0.00,,OVC090,0.00,VWS V14.00,2013-01-25 07:50:00,
2013-01-25 02:55:00,12.6,5.0,30.41,South,190,1.0,5.0,71,0.00,,OVC090,0.00,VWS V14.00,2013-01-25 07:55:00,
2013-01-25 03:00:00,12.6,5.0,30.41,South,175,2.0,2.0,71,0.00,,OVC060,0.00,VWS V14.00,2013-01-25 08:00:00,
2013-01-25 03:05:00,12.6,5.0,30.41,South,179,3.0,5.0,71,0.00,,OVC060,0.00,VWS V14.00,2013-01-25 08:05:00,
2013-01-25 03:11:00,12.6,5.0,30.41,South,180,3.0,5.0,71,0.00,,OVC060,0.00,VWS V14.00,2013-01-25 08:11:00,
2013-01-25 03:16:00,12.7,5.1,30.40,South,178,1.0,5.0,71,0.00,,OVC060,0.00,VWS V14.00,2013-01-25 08:16:00,
2013-01-25 03:21:00,12.7,5.1,30.40,South,178,0.0,5.0,71,0.00,,OVC060,0.00,VWS V14.00,2013-01-25 08:21:00,
2013-01-25 03:26:00,12.7,5.4,30.40,South,176,2.0,5.0,72,0.00,,OVC060,0.00,VWS V14.00,2013-01-25 08:26:00,
2013-01-25 03:31:00,12.8,5.5,30.40,South,178,4.0,4.0,72,0.00,,OVC060,0.00,VWS V14.00,2013-01-25 08:31:00,
2013-01-25 03:36:00,12.7,5.4,30.40,South,177,2.0,4.0,72,0.00,,OVC060,0.00,VWS V14.00,2013-01-25 08:36:00,
2013-01-25 03:41:00,12.7,5.7,30.39,South,177,3.0,4.0,73,0.00,,OVC060,0.00,VWS V14.00,2013-01-25 08:41:00,
2013-01-25 03:46:00,12.6,5.9,30.39,South,176,0.0,4.0,74,0.00,,OVC060,0.00,VWS V14.00,2013-01-25 08:46:00,
2013-01-25 03:51:00,12.6,6.2,30.39,South,176,2.0,4.0,75,0.00,,OVC060,0.00,VWS V14.00,2013-01-25 08:51:00,
2013-01-25 03:56:00,12.6,6.2,30.38,South,176,0.0,4.0,75,0.00,,OVC060,0.00,VWS V14.00,2013-01-25 08:56:00,
2013-01-25 04:01:00,12.6,6.5,30.38,South,176,1.0,2.0,76,0.00,,,0.00,VWS V14.00,2013-01-25 09:01:00,
2013-01-25 04:06:00,12.5,6.7,30.37,South,176,0.0,3.0,77,0.00,,,0.00,VWS V14.00,2013-01-25 09:06:00,
2013-01-25 04:11:00,12.3,6.8,30.36,South,176,2.0,3.0,78,0.00,,,0.00,VWS V14.00,2013-01-25 09:11:00,
2013-01-25 04:16:00,12.2,6.9,30.36,South,175,0.0,5.0,79,0.00,,,0.00,VWS V14.00,2013-01-25 09:16:00,
2013-01-25 04:22:00,12.1,7.1,30.35,South,175,0.0,5.0,80,0.00,,,0.00,VWS V14.00,2013-01-25 09:22:00,
2013-01-25 04:27:00,12.1,7.4,30.35,South,175,0.0,5.0,81,0.00,,,0.00,VWS V14.00,2013-01-25 09:27:00,
2013-01-25 04:31:00,12.1,7.4,30.35,South,175,0.0,3.0,81,0.00,,,0.00,VWS V14.00,2013-01-25 09:31:00,
2013-01-25 04:36:00,12.1,7.4,30.34,South,175,0.0,3.0,81,0.00,,,0.00,VWS V14.00,2013-01-25 09:36:00,
2013-01-25 04:42:00,12.1,7.7,30.33,South,173,0.0,3.0,82,0.00,,,0.00,VWS V14.00,2013-01-25 09:42:00,
2013-01-25 04:47:00,12.1,7.7,30.33,South,173,0.0,3.0,82,0.00,,,0.00,VWS V14.00,2013-01-25 09:47:00,
2013-01-25 04:52:00,12.1,7.7,30.32,South,173,0.0,3.0,82,0.00,,,0.00,VWS V14.00,2013-01-25 09:52:00,
2013-01-25 04:57:00,12.1,7.7,30.32,South,173,0.0,3.0,82,0.00,,,0.00,VWS V14.00,2013-01-25 09:57:00,
2013-01-25 05:02:00,12.2,7.8,30.32,SSE,166,0.0,3.0,82,0.00,,OVC070,0.00,VWS V14.00,2013-01-25 10:02:00,
2013-01-25 05:07:00,12.3,7.9,30.32,SSE,158,0.0,4.0,82,0.00,,OVC070,0.00,VWS V14.00,2013-01-25 10:07:00,
2013-01-25 05:12:00,12.3,7.9,30.31,SSE,157,1.0,4.0,82,0.00,,OVC070,0.00,VWS V14.00,2013-01-25 10:12:00,
2013-01-25 05:17:00,12.3,7.9,30.30,SSE,158,0.0,4.0,82,0.00,,OVC070,0.00,VWS V14.00,2013-01-25 10:17:00,
2013-01-25 05:22:00,12.4,8.0,30.30,SSE,157,0.0,4.0,82,0.00,,OVC070,0.00,VWS V14.00,2013-01-25 10:22:00,
2013-01-25 05:27:00,12.5,8.1,30.30,SSE,157,3.0,4.0,82,0.00,,OVC070,0.00,VWS V14.00,2013-01-25 10:27:00,
2013-01-25 05:32:00,12.6,8.2,30.29,SSE,157,0.0,2.0,82,0.00,,OVC070,0.00,VWS V14.00,2013-01-25 10:32:00,
2013-01-25 05:37:00,12.6,8.2,30.28,SSE,157,2.0,2.0,82,0.00,,OVC070,0.00,VWS V14.00,2013-01-25 10:37:00,
2013-01-25 05:42:00,12.6,8.2,30.28,SSE,157,0.0,2.0,82,0.00,,OVC070,0.00,VWS V14.00,2013-01-25 10:42:00,
2013-01-25 05:47:00,12.7,8.3,30.28,SSE,156,0.0,3.0,82,0.00,,OVC070,0.00,VWS V14.00,2013-01-25 10:47:00,
2013-01-25 05:52:00,12.7,8.3,30.27,SSE,155,2.0,3.0,82,0.00,,OVC070,0.00,VWS V14.00,2013-01-25 10:52:00,
2013-01-25 05:57:00,12.8,8.4,30.27,SSE,154,0.0,3.0,82,0.00,,OVC070,0.00,VWS V14.00,2013-01-25 10:57:00,
2013-01-25 06:02:00,12.8,8.4,30.27,SSE,153,0.0,0.0,82,0.00,,OVC095,0.00,VWS V14.00,2013-01-25 11:02:00,
2013-01-25 06:07:00,12.9,8.2,30.26,SSE,149,0.0,4.0,81,0.00,,OVC095,0.00,VWS V14.00,2013-01-25 11:07:00,
2013-01-25 06:12:00,13.0,8.3,30.26,SE,146,0.0,4.0,81,0.00,,OVC095,0.00,VWS V14.00,2013-01-25 11:12:00,
2013-01-25 06:17:00,13.1,8.4,30.26,SE,133,1.0,4.0,81,0.00,,OVC095,0.00,VWS V14.00,2013-01-25 11:17:00,
2013-01-25 06:22:00,13.1,8.1,30.25,SSE,147,0.0,4.0,80,0.00,,OVC095,0.00,VWS V14.00,2013-01-25 11:22:00,
2013-01-25 06:27:00,13.2,8.2,30.25,ENE,78,0.0,5.0,80,0.00,,OVC095,0.00,VWS V14.00,2013-01-25 11:27:00,
2013-01-25 06:32:00,13.3,8.0,30.25,South,171,2.0,5.0,79,0.00,,OVC095,0.00,VWS V14.00,2013-01-25 11:32:00,
2013-01-25 06:37:00,13.4,8.1,30.25,SSE,150,1.0,5.0,79,0.00,,OVC095,0.00,VWS V14.00,2013-01-25 11:37:00,
2013-01-25 06:43:00,13.6,8.0,30.25,SSE,148,0.0,5.0,78,0.00,,OVC095,0.00,VWS V14.00,2013-01-25 11:43:00,
2013-01-25 06:48:00,13.6,8.0,30.24,SE,146,1.0,5.0,78,0.00,,OVC095,0.00,VWS V14.00,2013-01-25 11:48:00,
2013-01-25 06:53:00,13.7,7.8,30.24,SSE,153,0.0,5.0,77,0.00,,OVC095,0.00,VWS V14.00,2013-01-25 11:53:00,
2013-01-25 06:58:00,13.8,8.2,30.24,South,169,3.0,5.0,78,0.00,,OVC095,0.00,VWS V14.00,2013-01-25 11:58:00,
2013-01-25 07:03:00,13.8,8.2,30.24,SSE,168,2.0,2.0,78,0.00,,OVC095,0.00,VWS V14.00,2013-01-25 12:03:00,
2013-01-25 07:08:00,13.8,8.8,30.23,SSE,164,2.0,5.0,80,0.00,,OVC095,0.00,VWS V14.00,2013-01-25 12:08:00,
2013-01-25 07:13:00,13.7,9.0,30.23,SSE,163,3.0,6.0,81,0.00,,OVC095,0.00,VWS V14.00,2013-01-25 12:13:00,
2013-01-25 07:18:00,13.6,9.1,30.23,SSE,157,1.0,6.0,82,0.00,,OVC095,0.00,VWS V14.00,2013-01-25 12:18:00,
2013-01-25 07:23:00,13.5,9.3,30.23,SSE,157,1.0,7.0,83,0.00,,OVC095,0.00,VWS V14.00,2013-01-25 12:23:00,
2013-01-25 07:29:00,13.5,9.3,30.23,SSE,163,2.0,7.0,83,0.00,,OVC095,0.00,VWS V14.00,2013-01-25 12:29:00,
2013-01-25 07:34:00,13.5,9.6,30.22,SSE,157,2.0,7.0,84,0.00,,OVC090,0.00,VWS V14.00,2013-01-25 12:34:00,
2013-01-25 07:39:00,13.5,9.6,30.22,SSE,157,0.0,7.0,84,0.00,,OVC090,0.00,VWS V14.00,2013-01-25 12:39:00,
2013-01-25 07:44:00,13.5,9.8,30.22,SE,142,2.0,7.0,85,0.00,,OVC090,0.00,VWS V14.00,2013-01-25 12:44:00,
2013-01-25 07:49:00,13.5,9.8,30.22,SSE,165,3.0,7.0,85,0.00,,OVC090,0.00,VWS V14.00,2013-01-25 12:49:00,
2013-01-25 07:54:00,13.6,9.9,30.22,South,175,2.0,7.0,85,0.00,,OVC090,0.00,VWS V14.00,2013-01-25 12:54:00,
2013-01-25 07:59:00,13.6,9.9,30.22,South,169,0.0,7.0,85,0.00,,OVC090,0.00,VWS V14.00,2013-01-25 12:59:00,
2013-01-25 08:04:00,13.7,10.0,30.22,South,169,1.0,2.0,85,0.00,,OVC050,0.00,VWS V14.00,2013-01-25 13:04:00,
2013-01-25 08:09:00,13.7,10.0,30.21,South,169,0.0,3.0,85,0.00,,OVC050,0.00,VWS V14.00,2013-01-25 13:09:00,
2013-01-25 08:14:00,13.8,10.1,30.22,South,169,0.0,3.0,85,0.00,,OVC050,0.00,VWS V14.00,2013-01-25 13:14:00,
2013-01-25 08:19:00,13.9,10.2,30.21,South,169,0.0,4.0,85,0.00,,OVC050,0.00,VWS V14.00,2013-01-25 13:19:00,
2013-01-25 08:24:00,14.0,10.3,30.21,SSE,168,1.0,4.0,85,0.00,,OVC050,0.00,VWS V14.00,2013-01-25 13:24:00,
2013-01-25 08:29:00,14.1,10.4,30.21,South,169,1.0,4.0,85,0.00,,OVC050,0.00,VWS V14.00,2013-01-25 13:29:00,
2013-01-25 08:34:00,14.2,10.5,30.21,South,169,2.0,3.0,85,0.00,,OVC050,0.00,VWS V14.00,2013-01-25 13:34:00,
2013-01-25 08:39:00,14.3,10.6,30.20,SSE,168,1.0,3.0,85,0.00,,OVC050,0.00,VWS V14.00,2013-01-25 13:39:00,
2013-01-25 08:44:00,14.2,10.8,30.19,South,175,1.0,6.0,86,0.00,,OVC050,0.00,VWS V14.00,2013-01-25 13:44:00,
2013-01-25 08:49:00,14.2,10.8,30.19,SSE,159,1.0,6.0,86,0.00,,OVC050,0.00,VWS V14.00,2013-01-25 13:49:00,
2013-01-25 08:54:00,14.2,11.1,30.19,SSE,157,2.0,6.0,87,0.00,,OVC050,0.00,VWS V14.00,2013-01-25 13:54:00,
2013-01-25 09:00:00,14.2,11.1,30.19,SSE,159,2.0,6.0,87,0.00,,OVC050,0.00,VWS V14.00,2013-01-25 14:00:00,
2013-01-25 09:05:00,14.3,11.1,30.19,South,181,3.0,5.0,87,0.00,,OVC060,0.00,VWS V14.00,2013-01-25 14:05:00,
2013-01-25 09:10:00,14.3,11.4,30.18,South,177,3.0,5.0,88,0.00,,OVC060,0.00,VWS V14.00,2013-01-25 14:10:00,
2013-01-25 09:15:00,14.3,11.4,30.18,South,175,1.0,5.0,88,0.00,,OVC060,0.00,VWS V14.00,2013-01-25 14:15:00,
2013-01-25 09:20:00,14.4,11.5,30.18,SSE,149,2.0,5.0,88,0.00,,OVC060,0.00,VWS V14.00,2013-01-25 14:20:00,
2013-01-25 09:25:00,14.4,11.5,30.17,SSE,158,2.0,5.0,88,0.00,,OVC060,0.00,VWS V14.00,2013-01-25 14:25:00,
2013-01-25 09:30:00,14.5,11.6,30.17,SSE,162,1.0,5.0,88,0.00,,OVC060,0.00,VWS V14.00,2013-01-25 14:30:00,
2013-01-25 09:35:00,14.6,11.7,30.17,SSE,157,1.0,5.0,88,0.00,,OVC060,0.00,VWS V14.00,2013-01-25 14:35:00,
2013-01-25 09:40:00,14.7,11.8,30.17,South,176,3.0,5.0,88,0.00,,OVC060,0.00,VWS V14.00,2013-01-25 14:40:00,
2013-01-25 09:45:00,14.8,12.1,30.16,South,178,2.0,5.0,89,0.00,,OVC060,0.00,VWS V14.00,2013-01-25 14:45:00,
2013-01-25 09:50:00,15.0,12.4,30.17,South,177,3.0,5.0,89,0.00,,OVC060,0.00,VWS V14.00,2013-01-25 14:50:00,
2013-01-25 09:55:00,15.2,12.6,30.17,South,177,3.0,5.0,89,0.00,,OVC060,0.00,VWS V14.00,2013-01-25 14:55:00,
2013-01-25 10:00:00,15.3,12.4,30.16,SSE,166,4.0,5.0,88,0.00,,OVC037,0.00,VWS V14.00,2013-01-25 15:00:00,
2013-01-25 10:05:00,15.4,12.7,30.16,South,180,1.0,5.0,89,0.00,,OVC037,0.00,VWS V14.00,2013-01-25 15:05:00,
2013-01-25 10:10:00,15.6,12.7,30.16,South,186,4.0,5.0,88,0.00,,OVC037,0.00,VWS V14.00,2013-01-25 15:10:00,
2013-01-25 10:15:00,15.7,12.8,30.16,South,181,3.0,5.0,88,0.00,,OVC037,0.00,VWS V14.00,2013-01-25 15:15:00,
2013-01-25 10:20:00,15.8,12.9,30.16,South,184,4.0,6.0,88,0.00,,OVC037,0.00,VWS V14.00,2013-01-25 15:20:00,
2013-01-25 10:25:00,15.8,12.9,30.16,SSW,198,3.0,6.0,88,0.00,,OVC037,0.00,VWS V14.00,2013-01-25 15:25:00,
2013-01-25 10:30:00,15.9,12.7,30.16,SSW,198,1.0,2.0,87,0.00,,OVC037,0.00,VWS V14.00,2013-01-25 15:30:00,
2013-01-25 10:35:00,16.1,12.9,30.16,South,173,2.0,5.0,87,0.00,,OVC037,0.00,VWS V14.00,2013-01-25 15:35:00,
2013-01-25 10:40:00,16.2,13.0,30.16,South,190,4.0,7.0,87,0.00,,OVC037,0.00,VWS V14.00,2013-01-25 15:40:00,
2013-01-25 10:45:00,16.4,13.2,30.15,SSW,195,1.0,7.0,87,0.00,,OVC037,0.00,VWS V14.00,2013-01-25 15:45:00,
2013-01-25 10:50:00,16.7,13.5,30.15,South,186,5.0,7.0,87,0.00,,OVC037,0.00,VWS V14.00,2013-01-25 15:50:00,
2013-01-25 10:55:00,16.9,13.7,30.14,South,178,3.0,7.0,87,0.00,,OVC037,0.00,VWS V14.00,2013-01-25 15:55:00,
2013-01-25 11:00:00,16.9,13.7,30.14,South,171,3.0,3.0,87,0.00,,,0.00,VWS V14.00,2013-01-25 16:00:00,
2013-01-25 11:05:00,16.9,13.4,30.14,SSE,163,4.0,7.0,86,0.00,,,0.00,VWS V14.00,2013-01-25 16:05:00,
2013-01-25 11:11:00,17.0,13.5,30.13,South,179,4.0,7.0,86,0.00,,,0.00,VWS V14.00,2013-01-25 16:11:00,
2013-01-25 11:16:00,17.3,13.8,30.13,South,173,8.0,8.0,86,0.00,,,0.00,VWS V14.00,2013-01-25 16:16:00,
2013-01-25 11:21:00,17.4,13.9,30.13,South,180,2.0,10.0,86,0.00,,,0.00,VWS V14.00,2013-01-25 16:21:00,
2013-01-25 11:26:00,17.9,14.4,30.12,SSE,155,4.0,10.0,86,0.00,,,0.00,VWS V14.00,2013-01-25 16:26:00,
2013-01-25 11:31:00,18.1,14.4,30.12,SSW,196,3.0,5.0,85,0.00,,,0.00,VWS V14.00,2013-01-25 16:31:00,
2013-01-25 11:36:00,18.4,14.6,30.12,SSW,202,7.0,7.0,85,0.00,,,0.00,VWS V14.00,2013-01-25 16:36:00,
2013-01-25 11:41:00,18.4,14.4,30.12,SSW,196,6.0,7.0,84,0.00,,,0.00,VWS V14.00,2013-01-25 16:41:00,
2013-01-25 11:46:00,18.5,14.5,30.12,South,187,5.0,11.0,84,0.00,,,0.00,VWS V14.00,2013-01-25 16:46:00,
2013-01-25 11:51:00,18.9,14.9,30.11,South,187,4.0,11.0,84,0.00,,,0.00,VWS V14.00,2013-01-25 16:51:00,
2013-01-25 11:56:00,19.0,14.7,30.11,South,187,4.0,11.0,83,0.00,,,0.00,VWS V14.00,2013-01-25 16:56:00,
2013-01-25 12:01:00,19.1,14.8,30.10,South,171,6.0,9.0,83,0.00,,,0.00,VWS V14.00,2013-01-25 17:01:00,
2013-01-25 12:06:00,19.1,14.8,30.10,South,169,4.0,10.0,83,0.00,,,0.00,VWS V14.00,2013-01-25 17:06:00,
2013-01-25 12:11:00,19.4,15.1,30.09,SSW,211,7.0,10.0,83,0.00,,,0.00,VWS V14.00,2013-01-25 17:11:00,
2013-01-25 12:16:00,19.4,14.8,30.09,South,188,5.0,12.0,82,0.00,,,0.00,VWS V14.00,2013-01-25 17:16:00,
2013-01-25 12:21:00,19.4,14.8,30.08,South,175,7.0,14.0,82,0.00,,,0.00,VWS V14.00,2013-01-25 17:21:00,
2013-01-25 12:26:00,19.5,14.9,30.08,SSW,198,6.0,14.0,82,0.00,,,0.00,VWS V14.00,2013-01-25 17:26:00,
2013-01-25 12:31:00,19.7,15.4,30.07,South,188,6.0,9.0,83,0.00,,,0.00,VWS V14.00,2013-01-25 17:31:00,
2013-01-25 12:37:00,19.7,15.1,30.08,SSW,213,6.0,10.0,82,0.00,,,0.00,VWS V14.00,2013-01-25 17:37:00,
2013-01-25 12:41:00,19.7,15.1,30.07,SSW,193,3.0,10.0,82,0.00,,,0.00,VWS V14.00,2013-01-25 17:41:00,
2013-01-25 12:46:00,19.9,15.0,30.07,SSE,156,6.0,11.0,81,0.00,,,0.00,VWS V14.00,2013-01-25 17:46:00,
2013-01-25 12:52:00,20.1,15.2,30.06,South,187,6.0,12.0,81,0.00,,,0.00,VWS V14.00,2013-01-25 17:52:00,
2013-01-25 12:57:00,20.2,15.0,30.06,SW,232,8.0,13.0,80,0.00,,,0.00,VWS V14.00,2013-01-25 17:57:00,
2013-01-25 13:02:00,20.1,15.2,30.05,SW,226,6.0,9.0,81,0.00,,OVC055,0.00,VWS V14.00,2013-01-25 18:02:00,
2013-01-25 13:07:00,20.3,14.8,30.05,SSW,212,5.0,9.0,79,0.00,,OVC055,0.00,VWS V14.00,2013-01-25 18:07:00,
2013-01-25 13:12:00,20.2,15.0,30.05,SSW,211,7.0,12.0,80,0.00,,OVC055,0.00,VWS V14.00,2013-01-25 18:12:00,
2013-01-25 13:17:00,20.2,14.7,30.04,SSW,203,6.0,12.0,79,0.00,,OVC055,0.00,VWS V14.00,2013-01-25 18:17:00,
2013-01-25 13:22:00,20.1,14.4,30.04,South,181,12.0,14.0,78,0.00,,OVC055,0.00,VWS V14.00,2013-01-25 18:22:00,
2013-01-25 13:27:00,20.1,14.6,30.03,SSE,161,8.0,14.0,79,0.00,,OVC055,0.00,VWS V14.00,2013-01-25 18:27:00,
2013-01-25 13:32:00,20.2,14.7,30.03,South,176,6.0,9.0,79,0.00,,OVC055,0.00,VWS V14.00,2013-01-25 18:32:00,
2013-01-25 13:37:00,20.4,14.9,30.03,SSW,210,7.0,12.0,79,0.00,,OVC055,0.00,VWS V14.00,2013-01-25 18:37:00,
2013-01-25 13:42:00,20.4,14.9,30.02,SSW,205,5.0,12.0,79,0.00,,OVC055,0.00,VWS V14.00,2013-01-25 18:42:00,
2013-01-25 13:47:00,20.5,15.0,30.02,SSW,203,4.0,12.0,79,0.00,,OVC055,0.00,VWS V14.00,2013-01-25 18:47:00,
2013-01-25 13:52:00,20.6,15.1,30.02,SSW,197,7.0,12.0,79,0.00,,OVC055,0.00,VWS V14.00,2013-01-25 18:52:00,
2013-01-25 13:57:00,20.6,15.1,30.02,WSW,248,7.0,12.0,79,0.00,,OVC055,0.00,VWS V14.00,2013-01-25 18:57:00,
2013-01-25 14:02:00,20.6,15.1,30.02,South,172,8.0,11.0,79,0.00,,,0.00,VWS V14.00,2013-01-25 19:02:00,
2013-01-25 14:07:00,20.5,15.0,30.02,South,182,6.0,11.0,79,0.00,,,0.00,VWS V14.00,2013-01-25 19:07:00,
2013-01-25 14:12:00,20.5,15.0,30.02,South,186,6.0,12.0,79,0.00,,,0.00,VWS V14.00,2013-01-25 19:12:00,
2013-01-25 14:17:00,20.5,15.3,30.01,South,179,5.0,12.0,80,0.00,,,0.00,VWS V14.00,2013-01-25 19:17:00,
2013-01-25 14:22:00,20.6,15.1,30.01,SW,219,10.0,12.0,79,0.00,,,0.00,VWS V14.00,2013-01-25 19:22:00,
2013-01-25 14:27:00,20.5,15.0,30.01,SSW,208,7.0,12.0,79,0.00,,,0.00,VWS V14.00,2013-01-25 19:27:00,
2013-01-25 14:33:00,20.5,15.0,30.01,SW,216,7.0,11.0,79,0.00,,,0.00,VWS V14.00,2013-01-25 19:33:00,
2013-01-25 14:38:00,20.6,15.1,30.00,SSW,207,6.0,12.0,79,0.00,,,0.00,VWS V14.00,2013-01-25 19:38:00,
2013-01-25 14:43:00,20.7,15.2,30.00,South,191,8.0,12.0,79,0.00,,,0.00,VWS V14.00,2013-01-25 19:43:00,
2013-01-25 14:48:00,20.7,14.9,30.00,SSW,202,7.0,12.0,78,0.00,,,0.00,VWS V14.00,2013-01-25 19:48:00,
2013-01-25 14:53:00,20.8,15.0,29.99,SSW,203,10.0,12.0,78,0.00,,,0.00,VWS V14.00,2013-01-25 19:53:00,
2013-01-25 14:58:00,20.9,15.4,29.99,SW,221,8.0,12.0,79,0.00,,,0.00,VWS V14.00,2013-01-25 19:58:00,
2013-01-25 15:03:00,20.9,15.4,29.99,SSW,196,5.0,7.0,79,0.00,,,0.00,VWS V14.00,2013-01-25 20:03:00,
2013-01-25 15:08:00,20.9,15.4,29.99,SSE,165,4.0,8.0,79,0.00,,,0.00,VWS V14.00,2013-01-25 20:08:00,
2013-01-25 15:13:00,21.0,15.5,29.99,South,188,6.0,8.0,79,0.00,,,0.00,VWS V14.00,2013-01-25 20:13:00,
2013-01-25 15:18:00,20.9,15.4,29.99,SW,216,6.0,11.0,79,0.00,,,0.00,VWS V14.00,2013-01-25 20:18:00,
2013-01-25 15:23:00,20.8,15.6,29.99,South,177,4.0,11.0,80,0.00,,,0.00,VWS V14.00,2013-01-25 20:23:00,
2013-01-25 15:28:00,20.8,15.3,29.99,South,175,6.0,11.0,79,0.00,,,0.00,VWS V14.00,2013-01-25 20:28:00,
2013-01-25 15:33:00,20.9,15.4,29.99,SSW,201,7.0,8.0,79,0.00,,,0.00,VWS V14.00,2013-01-25 20:33:00,
2013-01-25 15:38:00,20.9,15.7,29.98,SW,217,7.0,9.0,80,0.00,,,0.00,VWS V14.00,2013-01-25 20:38:00,
2013-01-25 15:43:00,20.9,15.7,29.98,South,184,3.0,9.0,80,0.00,,,0.00,VWS V14.00,2013-01-25 20:43:00,
2013-01-25 15:48:00,20.9,15.7,29.98,SSW,194,5.0,11.0,80,0.00,,,0.00,VWS V14.00,2013-01-25 20:48:00,
2013-01-25 15:53:00,20.8,15.9,29.98,South,190,4.0,11.0,81,0.00,,,0.00,VWS V14.00,2013-01-25 20:53:00,
2013-01-25 15:59:00,20.8,16.2,29.98,SW,215,2.0,11.0,82,0.00,,,0.00,VWS V14.00,2013-01-25 20:59:00,
2013-01-25 16:03:00,20.8,18.1,29.98,South,189,3.0,7.0,89,0.00,,,0.00,VWS V14.00,2013-01-25 21:03:00,
2013-01-25 16:09:00,20.7,16.4,29.98,SSW,200,5.0,7.0,83,0.00,,,0.00,VWS V14.00,2013-01-25 21:09:00,
2013-01-25 16:14:00,20.8,16.5,29.98,South,190,5.0,8.0,83,0.00,,,0.00,VWS V14.00,2013-01-25 21:14:00,
2013-01-25 16:19:00,20.7,16.4,29.98,SSW,204,5.0,8.0,83,0.00,,,0.00,VWS V14.00,2013-01-25 21:19:00,
2013-01-25 16:24:00,20.7,16.4,29.98,South,175,3.0,8.0,83,0.00,,,0.00,VWS V14.00,2013-01-25 21:24:00,
2013-01-25 16:29:00,20.7,16.6,29.99,South,188,4.0,8.0,84,0.00,,,0.00,VWS V14.00,2013-01-25 21:29:00,
2013-01-25 16:34:00,20.7,16.6,29.99,SSW,203,4.0,9.0,84,0.00,,,0.00,VWS V14.00,2013-01-25 21:34:00,
2013-01-25 16:39:00,20.6,16.8,29.98,South,188,6.0,9.0,85,0.00,,,0.00,VWS V14.00,2013-01-25 21:39:00,
2013-01-25 16:44:00,20.5,16.7,29.99,SW,217,8.0,9.0,85,0.00,,,0.00,VWS V14.00,2013-01-25 21:44:00,
2013-01-25 16:49:00,20.5,17.0,29.99,SSW,211,3.0,9.0,86,0.00,,,0.00,VWS V14.00,2013-01-25 21:49:00,
2013-01-25 16:54:00,20.5,17.2,29.99,SSW,205,4.0,9.0,87,0.00,,,0.00,VWS V14.00,2013-01-25 21:54:00,
2013-01-25 16:59:00,20.4,17.2,29.99,South,190,4.0,9.0,87,0.00,,,0.00,VWS V14.00,2013-01-25 21:59:00,
2013-01-25 17:04:00,20.4,17.2,29.99,SSW,211,2.0,6.0,87,0.00,,,0.00,VWS V14.00,2013-01-25 22:04:00,
2013-01-25 17:09:00,20.4,17.4,29.99,SSW,193,3.0,6.0,88,0.00,,,0.00,VWS V14.00,2013-01-25 22:09:00,
2013-01-25 17:14:00,20.3,17.3,29.99,SSW,192,2.0,6.0,88,0.00,,,0.00,VWS V14.00,2013-01-25 22:14:00,
2013-01-25 17:19:00,20.3,17.6,29.99,South,191,4.0,6.0,89,0.00,,,0.00,VWS V14.00,2013-01-25 22:19:00,
2013-01-25 17:24:00,20.2,17.5,29.99,South,180,4.0,6.0,89,0.00,,,0.00,VWS V14.00,2013-01-25 22:24:00,
2013-01-25 17:29:00,20.1,17.4,29.99,South,191,3.0,6.0,89,0.00,,,0.00,VWS V14.00,2013-01-25 22:29:00,
2013-01-25 17:34:00,20.0,17.5,30.00,South,187,3.0,5.0,90,0.00,,,0.00,VWS V14.00,2013-01-25 22:34:00,
2013-01-25 17:39:00,20.0,17.5,29.99,South,188,2.0,5.0,90,0.00,,,0.00,VWS V14.00,2013-01-25 22:39:00,
2013-01-25 17:44:00,20.0,17.5,29.99,South,189,3.0,5.0,90,0.00,,,0.00,VWS V14.00,2013-01-25 22:44:00,
2013-01-25 17:49:00,20.0,17.5,30.00,South,189,1.0,5.0,90,0.00,,,0.00,VWS V14.00,2013-01-25 22:49:00,
2013-01-25 17:54:00,20.0,17.8,30.00,South,188,2.0,5.0,91,0.00,,,0.00,VWS V14.00,2013-01-25 22:54:00,
2013-01-25 17:59:00,20.0,17.8,30.00,SSW,196,2.0,5.0,91,0.00,,,0.00,VWS V14.00,2013-01-25 22:59:00,
2013-01-25 18:04:00,19.9,17.7,29.99,SSW,196,3.0,4.0,91,0.00,,,0.00,VWS V14.00,2013-01-25 23:04:00,
2013-01-25 18:09:00,19.9,17.7,29.99,South,188,3.0,5.0,91,0.00,,,0.00,VWS V14.00,2013-01-25 23:09:00,
2013-01-25 18:15:00,19.9,17.7,30.00,South,189,4.0,5.0,91,0.00,,,0.00,VWS V14.00,2013-01-25 23:15:00,
2013-01-25 18:20:00,19.9,17.7,30.00,South,189,2.0,5.0,91,0.00,,,0.00,VWS V14.00,2013-01-25 23:20:00,
2013-01-25 18:25:00,19.9,17.7,30.00,South,189,3.0,5.0,91,0.00,,,0.00,VWS V14.00,2013-01-25 23:25:00,
2013-01-25 18:30:00,19.9,17.7,30.00,South,188,2.0,5.0,91,0.00,,,0.00,VWS V14.00,2013-01-25 23:30:00,
2013-01-25 18:35:00,19.9,17.7,30.00,South,188,2.0,4.0,91,0.00,,,0.00,VWS V14.00,2013-01-25 23:35:00,
2013-01-25 18:40:00,19.8,17.6,30.00,South,188,2.0,4.0,91,0.00,,,0.00,VWS V14.00,2013-01-25 23:40:00,
2013-01-25 18:45:00,19.8,17.9,30.00,South,188,1.0,4.0,92,0.00,,,0.00,VWS V14.00,2013-01-25 23:45:00,
2013-01-25 18:50:00,19.8,17.9,30.00,South,188,2.0,4.0,92,0.00,,,0.00,VWS V14.00,2013-01-25 23:50:00,
2013-01-25 18:55:00,19.8,17.9,30.00,South,188,0.0,4.0,92,0.00,,,0.00,VWS V14.00,2013-01-25 23:55:00,
2013-01-25 19:00:00,19.8,17.9,30.00,South,188,1.0,4.0,92,0.00,,,0.00,VWS V14.00,2013-01-26 00:00:00,
2013-01-25 19:05:00,19.8,17.9,30.00,South,188,2.0,3.0,92,0.00,,,0.00,VWS V14.00,2013-01-26 00:05:00,
2013-01-25 19:10:00,19.8,17.9,30.00,South,182,2.0,4.0,92,0.00,,,0.00,VWS V14.00,2013-01-26 00:10:00,
2013-01-25 19:15:00,19.8,17.9,30.00,South,184,1.0,4.0,92,0.00,,,0.00,VWS V14.00,2013-01-26 00:15:00,
2013-01-25 19:20:00,19.8,17.9,30.00,South,184,0.0,4.0,92,0.00,,,0.00,VWS V14.00,2013-01-26 00:20:00,
2013-01-25 19:25:00,19.8,17.9,30.01,South,184,0.0,4.0,92,0.00,,,0.00,VWS V14.00,2013-01-26 00:25:00,
2013-01-25 19:30:00,19.8,17.9,30.01,South,184,0.0,1.0,92,0.00,,,0.00,VWS V14.00,2013-01-26 00:30:00,
2013-01-25 19:35:00,19.8,17.9,30.01,South,184,1.0,3.0,92,0.00,,,0.00,VWS V14.00,2013-01-26 00:35:00,
2013-01-25 19:40:00,19.8,17.9,30.01,South,185,1.0,3.0,92,0.00,,,0.00,VWS V14.00,2013-01-26 00:40:00,
2013-01-25 19:45:00,19.8,17.9,30.01,South,185,0.0,3.0,92,0.00,,,0.00,VWS V14.00,2013-01-26 00:45:00,
2013-01-25 19:50:00,19.8,17.9,30.01,South,185,3.0,4.0,92,0.00,,,0.00,VWS V14.00,2013-01-26 00:50:00,
2013-01-25 19:56:00,19.8,17.9,30.00,South,184,0.0,4.0,92,0.00,,,0.00,VWS V14.00,2013-01-26 00:56:00,
2013-01-25 20:01:00,19.8,17.9,30.00,South,184,2.0,2.0,92,0.00,,,0.00,VWS V14.00,2013-01-26 01:01:00,
2013-01-25 20:06:00,19.8,17.9,30.00,South,185,0.0,3.0,92,0.00,,,0.00,VWS V14.00,2013-01-26 01:06:00,
2013-01-25 20:11:00,19.8,17.9,30.00,South,186,2.0,3.0,92,0.00,,,0.00,VWS V14.00,2013-01-26 01:11:00,
2013-01-25 20:16:00,19.8,17.9,30.00,South,186,3.0,3.0,92,0.00,,,0.00,VWS V14.00,2013-01-26 01:16:00,
2013-01-25 20:21:00,19.8,17.9,30.00,South,189,2.0,3.0,92,0.00,,,0.00,VWS V14.00,2013-01-26 01:21:00,
2013-01-25 20:26:00,19.8,17.9,30.01,South,189,2.0,4.0,92,0.00,,,0.00,VWS V14.00,2013-01-26 01:26:00,
2013-01-25 20:31:00,19.7,18.0,30.01,South,188,2.0,2.0,93,0.00,,,0.00,VWS V14.00,2013-01-26 01:31:00,
2013-01-25 20:36:00,19.7,18.0,30.01,South,188,0.0,2.0,93,0.00,,,0.00,VWS V14.00,2013-01-26 01:36:00,
2013-01-25 20:41:00,19.7,18.0,30.01,South,189,0.0,2.0,93,0.00,,,0.00,VWS V14.00,2013-01-26 01:41:00,
2013-01-25 20:46:00,19.8,18.1,30.01,South,189,0.0,2.0,93,0.00,,,0.00,VWS V14.00,2013-01-26 01:46:00,
2013-01-25 20:51:00,19.8,18.1,30.01,SW,229,1.0,4.0,93,0.00,,,0.00,VWS V14.00,2013-01-26 01:51:00,
2013-01-25 20:56:00,19.8,18.1,30.01,SW,229,0.0,4.0,93,0.00,,,0.00,VWS V14.00,2013-01-26 01:56:00,
2013-01-25 21:01:00,19.8,18.1,30.01,SW,229,0.0,0.0,93,0.00,,,0.00,VWS V14.00,2013-01-26 02:01:00,
2013-01-25 21:06:00,19.7,18.0,30.01,SW,229,0.0,0.0,93,0.00,,,0.00,VWS V14.00,2013-01-26 02:06:00,
2013-01-25 21:11:00,19.7,18.0,30.01,SW,229,0.0,0.0,93,0.00,,,0.00,VWS V14.00,2013-01-26 02:11:00,
2013-01-25 21:16:00,19.4,17.5,30.01,SW,229,0.0,0.0,92,0.00,,,0.00,VWS V14.00,2013-01-26 02:16:00,
2013-01-25 21:21:00,19.3,17.4,30.01,SW,229,0.0,0.0,92,0.00,,,0.00,VWS V14.00,2013-01-26 02:21:00,
2013-01-25 21:27:00,19.2,17.5,30.02,SW,229,0.0,0.0,93,0.00,,,0.00,VWS V14.00,2013-01-26 02:27:00,
2013-01-25 21:32:00,19.2,17.5,30.02,SW,229,0.0,0.0,93,0.00,,,0.00,VWS V14.00,2013-01-26 02:32:00,
2013-01-25 21:37:00,19.1,17.4,30.02,SW,229,0.0,0.0,93,0.00,,,0.00,VWS V14.00,2013-01-26 02:37:00,
2013-01-25 21:42:00,19.1,17.4,30.02,SW,229,0.0,0.0,93,0.00,,,0.00,VWS V14.00,2013-01-26 02:42:00,
2013-01-25 21:47:00,19.1,17.4,30.02,SW,229,0.0,0.0,93,0.00,,,0.00,VWS V14.00,2013-01-26 02:47:00,
2013-01-25 21:52:00,19.0,17.3,30.02,SW,229,0.0,0.0,93,0.00,,,0.00,VWS V14.00,2013-01-26 02:52:00,
2013-01-25 21:57:00,19.0,17.3,30.02,SW,229,0.0,0.0,93,0.00,,,0.00,VWS V14.00,2013-01-26 02:57:00,
2013-01-25 22:02:00,18.9,17.2,30.02,SW,229,0.0,0.0,93,0.00,,,0.00,VWS V14.00,2013-01-26 03:02:00,
2013-01-25 22:07:00,18.9,17.2,30.02,SW,229,0.0,0.0,93,0.00,,,0.00,VWS V14.00,2013-01-26 03:07:00,
2013-01-25 22:12:00,18.9,17.2,30.02,SW,229,0.0,0.0,93,0.00,,,0.00,VWS V14.00,2013-01-26 03:12:00,
2013-01-25 22:17:00,18.8,17.1,30.02,SW,229,0.0,0.0,93,0.00,,,0.00,VWS V14.00,2013-01-26 03:17:00,
2013-01-25 22:22:00,18.8,17.1,30.03,SW,229,0.0,0.0,93,0.00,,,0.00,VWS V14.00,2013-01-26 03:22:00,
2013-01-25 22:27:00,18.8,17.1,30.03,SW,229,0.0,0.0,93,0.00,,,0.00,VWS V14.00,2013-01-26 03:27:00,
2013-01-25 22:32:00,18.8,17.1,30.03,SW,229,0.0,0.0,93,0.00,,,0.00,VWS V14.00,2013-01-26 03:32:00,
2013-01-25 22:37:00,18.8,17.1,30.03,SW,229,0.0,0.0,93,0.00,,,0.00,VWS V14.00,2013-01-26 03:37:00,
2013-01-25 22:42:00,18.8,17.1,30.03,SW,229,0.0,0.0,93,0.00,,,0.00,VWS V14.00,2013-01-26 03:42:00,
2013-01-25 22:47:00,18.8,17.1,30.03,SW,229,0.0,0.0,93,0.00,,,0.00,VWS V14.00,2013-01-26 03:47:00,
2013-01-25 22:52:00,18.8,17.1,30.03,SW,229,0.0,0.0,93,0.00,,,0.00,VWS V14.00,2013-01-26 03:52:00,
2013-01-25 22:57:00,18.8,17.1,30.03,SW,229,0.0,0.0,93,0.00,,,0.00,VWS V14.00,2013-01-26 03:57:00,
2013-01-25 23:02:00,18.7,17.0,30.04,SW,229,0.0,0.0,93,0.00,,,0.00,VWS V14.00,2013-01-26 04:02:00,
2013-01-25 23:07:00,18.6,16.9,30.04,SW,229,0.0,0.0,93,0.00,,,0.00,VWS V14.00,2013-01-26 04:07:00,
2013-01-25 23:12:00,18.6,16.9,30.04,SW,229,0.0,0.0,93,0.00,,,0.00,VWS V14.00,2013-01-26 04:12:00,
2013-01-25 23:17:00,18.6,16.9,30.04,SW,229,0.0,0.0,93,0.00,,,0.00,VWS V14.00,2013-01-26 04:17:00,
2013-01-25 23:23:00,18.6,16.9,30.05,SW,229,0.0,0.0,93,0.00,,,0.00,VWS V14.00,2013-01-26 04:23:00,
2013-01-25 23:28:00,18.6,16.9,30.05,SW,229,0.0,0.0,93,0.00,,,0.00,VWS V14.00,2013-01-26 04:28:00,
2013-01-25 23:33:00,18.7,17.0,30.05,SW,229,0.0,0.0,93,0.00,,,0.00,VWS V14.00,2013-01-26 04:33:00,
2013-01-25 23:38:00,18.8,17.1,30.05,SW,229,0.0,0.0,93,0.00,,,0.00,VWS V14.00,2013-01-26 04:38:00,
2013-01-25 23:42:00,19.0,17.3,30.05,SW,229,0.0,0.0,93,0.00,,,0.00,VWS V14.00,2013-01-26 04:42:00,
2013-01-25 23:48:00,19.1,17.7,30.05,SW,229,0.0,0.0,94,0.00,,,0.00,VWS V14.00,2013-01-26 04:48:00,
2013-01-25 23:53:00,19.3,17.6,30.06,SW,229,0.0,2.0,93,0.00,,,0.00,VWS V14.00,2013-01-26 04:53:00,
2013-01-25 23:58:00,19.4,19.4,30.06,SW,229,0.0,2.0,100,0.00,,,0.00,VWS V14.00,2013-01-26 04:58:00,